KBOI

Boise

Airport
ICAO code
KBOI
Summary
ICAO Region
NAM
ICAO Territory
Location

Ada County, Idaho,

Coordinates
43° 33' 52" N , 116° 13' 25" W
KCC
BSk
Airport CFIT
Altimeter Temperature Error Correction
Airport LOS
Parallel Runway Operation
Metar
Observation
KBOI 171353Z 13010KT 10SM CLR 23/02 A3005 RMK AO2 SLP137 T02330022 $
Station
Boise, Boise Air Terminal
Date/Time
2022-08-17 13:53:00
Wind direction
130°
Wind speed
10 kts
Lowest cloud amount
n/a
Temperature
23.3°C
Dew point
2.2°C
Humidity
25%
Weather condition
n/a

Description

Boise Airport, also known as Boise Air Terminal or Gowen Field, is a joint civil-military, commercial and general aviation airport located 3 nm south of downtown Boise in Ada County, Idaho, USA.

Climatology

Cold Semi-arid climate (Köppen climate classification BSk). - Hot, sometimes extremely hot summers and cold, sometimes very cold winters. Some snowfall during the winter. Areas featuring cold semi-arid climates are sometimes subject to major temperature swings during a 24 hour period.

Airport map

Aerial View

SKYbrary Partners:

Safety knowledge contributed by: